LDRI

Rijeka Airport

Rijeka, Croatia
TAF LDRI 141125Z 1412/1512 06020G30KT 9999 SCT010 BKN040 TX05/1412Z TN02/1506Z BECMG 1418/1420 06025G45KT BECMG 1508/1510 06010KT TEMPO 1510/1512 VRB10KT
Issued Valid From Valid To
Dec-14 @ 11:25 UTC
(11 hours ago)
Dec-14 @ 12:00 UTC
(11 hours ago)
Dec-15 @ 12:00 UTC
(in 13 hours)
Expired Click to View Dec-14 @ 12:00 to Dec-14 @ 18:00
TAF LDRI 141125Z 1412/1512 06020G30KT 9999 SCT010 BKN040 TX05/1412Z TN02/1506Z
Wind Visibility Clouds
60° at 20 knots
 Gusting to 30 knots
10,000+ meters
  • Scattered at 1,000' AGL
  • Broken at 4,000' AGL
Becoming Dec-14 @ 18:00 to Dec-15 @ 08:00
BECMG 1418/1420 06025G45KT
Wind Visibility Clouds
60° at 25 knots
 Gusting to 45 knots
10,000+ meters
  • Scattered at 1,000' AGL
  • Broken at 4,000' AGL
Becoming Dec-15 @ 08:00 to Dec-15 @ 12:00
BECMG 1508/1510 06010KT
Wind Visibility Clouds
60° at 10 knots 10,000+ meters
  • Scattered at 1,000' AGL
  • Broken at 4,000' AGL
Temporary Dec-15 @ 10:00 to Dec-15 @ 12:00
TEMPO 1510/1512 VRB10KT
Wind
Variable at 10 knots
TAF LDRI 141125Z 1412/1512 06020G30KT 9999 SCT010 BKN040 TX05/1412Z TN02/1506Z BECMG 1418/1420 06025G45KT BECMG 1508/1510 06010KT TEMPO 1510/1512 VRB10KT
Issued Dec-14 @ 11:25 UTC
(11 hours ago)
Valid From Dec-14 @ 12:00 UTC
(11 hours ago)
Valid To Dec-15 @ 12:00 UTC
(in 13 hours)
Dec-14 @ 12:00 - Dec-14 @ 18:00
Wind Visibility
60° at 20 knots
 Gusting to 30 knots
10,000+ meters
Clouds
  • Scattered at 1,000' AGL
  • Broken at 4,000' AGL
Becoming Dec-14 @ 18:00 - Dec-15 @ 08:00
Wind Visibility
60° at 25 knots
 Gusting to 45 knots
10,000+ meters
Clouds
  • Scattered at 1,000' AGL
  • Broken at 4,000' AGL
Becoming Dec-15 @ 08:00 - Dec-15 @ 12:00
Wind Visibility
60° at 10 knots 10,000+ meters
Clouds
  • Scattered at 1,000' AGL
  • Broken at 4,000' AGL
Temporary Dec-15 @ 10:00 - Dec-15 @ 12:00
Wind
Variable at 10 knots